createdAt,value
2019-05-07T00:05:39.473Z,5.70
2019-05-07T00:15:39.416Z,5.61
2019-05-07T00:25:39.512Z,5.42
2019-05-07T00:35:39.556Z,5.46
2019-05-07T00:45:39.395Z,5.09
2019-05-07T00:55:39.492Z,4.82
2019-05-07T01:05:39.449Z,4.93
2019-05-07T01:15:39.412Z,5.29
2019-05-07T01:25:39.483Z,5.60
2019-05-07T01:35:39.750Z,5.73
2019-05-07T01:45:48.174Z,5.83
2019-05-07T01:55:39.463Z,5.96
2019-05-07T02:05:39.451Z,6.04
2019-05-07T02:15:39.473Z,6.14
2019-05-07T02:25:41.966Z,6.26
2019-05-07T02:35:39.494Z,6.31
2019-05-07T02:45:39.417Z,6.30
2019-05-07T02:55:39.476Z,6.30
2019-05-07T03:05:39.439Z,6.28
2019-05-07T03:15:43.192Z,6.24
2019-05-07T03:25:39.400Z,6.23
2019-05-07T03:35:39.436Z,6.16
2019-05-07T03:45:39.425Z,6.04
2019-05-07T03:55:39.378Z,5.95
2019-05-07T04:05:39.455Z,5.92
2019-05-07T04:15:39.490Z,5.84
2019-05-07T04:25:39.411Z,5.83
2019-05-07T04:35:43.069Z,5.84
2019-05-07T04:45:39.444Z,5.85
2019-05-07T04:55:42.855Z,5.90
2019-05-07T05:05:39.400Z,5.98
2019-05-07T05:15:39.474Z,6.20
2019-05-07T05:25:39.399Z,6.73
2019-05-07T05:35:39.501Z,6.91
2019-05-07T05:45:39.429Z,7.21
2019-05-07T05:55:39.520Z,7.71
2019-05-07T06:05:39.445Z,8.04
2019-05-07T06:15:39.419Z,8.26
2019-05-07T06:25:39.523Z,8.14
2019-05-07T06:35:39.491Z,8.13
2019-05-07T06:45:39.514Z,8.42
2019-05-07T06:55:39.484Z,9.35
2019-05-07T07:05:39.472Z,9.60
2019-05-07T07:15:39.753Z,10.08
2019-05-07T07:25:39.520Z,9.76
2019-05-07T07:35:39.491Z,10.72
2019-05-07T07:45:41.893Z,10.76
2019-05-07T07:55:39.522Z,10.78
2019-05-07T08:05:39.477Z,10.59
2019-05-07T08:15:39.542Z,11.40
2019-05-07T08:25:39.518Z,12.12
2019-05-07T08:35:41.788Z,10.82
2019-05-07T08:45:39.536Z,12.82
2019-05-07T08:55:39.605Z,12.19
2019-05-07T09:05:39.476Z,12.98
2019-05-07T09:15:39.595Z,12.55
2019-05-07T09:25:41.568Z,12.83
2019-05-07T09:35:39.867Z,13.58
2019-05-07T09:45:41.880Z,14.20
2019-05-07T09:55:39.492Z,12.84
2019-05-07T10:05:39.528Z,12.62
2019-05-07T10:15:41.747Z,11.52
2019-05-07T10:25:39.525Z,11.65
2019-05-07T10:35:39.564Z,11.66
2019-05-07T10:45:39.529Z,12.01
2019-05-07T10:55:39.543Z,12.68
2019-05-07T11:05:41.707Z,11.99
2019-05-07T11:15:39.553Z,11.84
2019-05-07T11:25:39.524Z,12.22
2019-05-07T11:35:39.492Z,12.65
2019-05-07T11:45:39.563Z,13.43
2019-05-07T11:55:41.932Z,13.68
2019-05-07T12:05:39.516Z,14.68
2019-05-07T12:15:39.580Z,13.76
2019-05-07T12:25:39.551Z,12.79
2019-05-07T12:35:41.912Z,12.58
2019-05-07T12:45:39.520Z,12.18
2019-05-07T12:55:39.567Z,12.30
2019-05-07T13:05:41.622Z,12.78
2019-05-07T13:15:39.568Z,12.97
2019-05-07T13:25:39.561Z,13.36
2019-05-07T13:35:39.511Z,12.74
2019-05-07T13:45:41.670Z,12.32
2019-05-07T13:55:43.039Z,14.90
2019-05-07T14:05:39.643Z,14.19
2019-05-07T14:15:39.589Z,12.51
2019-05-07T14:25:41.946Z,13.85
2019-05-07T14:35:39.613Z,14.35
2019-05-07T14:45:41.971Z,15.52
2019-05-07T14:55:41.664Z,15.02
2019-05-07T15:05:39.520Z,13.42
2019-05-07T15:15:39.674Z,13.00
2019-05-07T15:25:39.431Z,13.02
2019-05-07T15:35:39.515Z,13.43
2019-05-07T15:45:39.496Z,15.09
2019-05-07T15:55:41.637Z,15.49
2019-05-07T16:05:39.512Z,14.25
2019-05-07T16:15:39.595Z,16.22
2019-05-07T16:25:39.574Z,16.02
2019-05-07T16:35:39.531Z,15.11
2019-05-07T16:45:39.473Z,14.60
2019-05-07T16:55:39.485Z,13.78
2019-05-07T17:05:39.531Z,13.69
2019-05-07T17:15:39.468Z,13.33
2019-05-07T17:25:39.466Z,13.39
2019-05-07T17:35:39.548Z,13.12
2019-05-07T17:45:39.595Z,12.94
2019-05-07T17:55:42.169Z,12.85
2019-05-07T18:05:39.458Z,12.59
2019-05-07T18:15:39.542Z,12.38
2019-05-07T18:25:39.520Z,11.93
2019-05-07T18:35:39.498Z,11.41
2019-05-07T18:45:39.549Z,10.93
2019-05-07T18:55:39.704Z,10.71
2019-05-07T19:05:39.580Z,10.76
2019-05-07T19:15:41.855Z,10.53
2019-05-07T19:25:41.912Z,10.27
2019-05-07T19:35:41.751Z,10.38
2019-05-07T19:45:41.753Z,10.28
2019-05-07T19:55:42.020Z,10.22
2019-05-07T20:05:41.878Z,10.26
2019-05-07T20:15:39.546Z,10.31
2019-05-07T20:25:41.845Z,10.18
2019-05-07T20:35:41.343Z,10.06
2019-05-07T20:45:39.573Z,9.94
2019-05-07T20:55:39.620Z,9.81
2019-05-07T21:05:41.657Z,9.67
2019-05-07T21:15:41.760Z,9.58
2019-05-07T21:25:43.600Z,9.52
2019-05-07T21:35:39.743Z,9.49
2019-05-07T21:45:39.612Z,9.43
2019-05-07T21:55:39.590Z,9.39
2019-05-07T22:05:44.058Z,9.38
2019-05-07T22:15:39.617Z,9.30
2019-05-07T22:25:39.583Z,9.25
2019-05-07T22:35:39.563Z,9.23
2019-05-07T22:45:39.553Z,9.13
2019-05-07T22:55:41.800Z,9.02
2019-05-07T23:05:39.551Z,8.89
2019-05-07T23:15:39.541Z,8.85
2019-05-07T23:25:39.485Z,8.81
2019-05-07T23:35:39.427Z,8.84
2019-05-07T23:45:39.547Z,8.76
2019-05-07T23:55:39.479Z,8.71
